createdAt,value
2022-11-08T00:00:09.629Z,100354.06
2022-11-08T00:02:37.566Z,100350.50
2022-11-08T00:05:25.223Z,100354.81
2022-11-08T00:08:12.215Z,100353.44
2022-11-08T00:10:59.224Z,100350.31
2022-11-08T00:13:46.095Z,100352.69
2022-11-08T00:16:14.819Z,100353.22
2022-11-08T00:18:43.167Z,100350.66
2022-11-08T00:21:11.410Z,100351.09
2022-11-08T00:23:40.187Z,100351.22
2022-11-08T00:26:08.423Z,100350.97
2022-11-08T00:28:36.152Z,100359.84
2022-11-08T00:31:07.160Z,100363.78
2022-11-08T00:33:35.315Z,100360.34
2022-11-08T00:36:03.470Z,100354.69
2022-11-08T00:38:31.112Z,100353.78
2022-11-08T00:40:58.447Z,100361.22
2022-11-08T00:43:25.772Z,100358.94
2022-11-08T00:45:53.410Z,100356.88
2022-11-08T00:48:20.950Z,100358.00
2022-11-08T00:50:48.337Z,100352.41
2022-11-08T00:53:15.946Z,100353.28
2022-11-08T00:55:43.277Z,100350.62
2022-11-08T00:58:10.610Z,100356.38
2022-11-08T01:00:38.164Z,100353.06
2022-11-08T01:03:20.329Z,100348.22
2022-11-08T01:05:48.825Z,100345.16
2022-11-08T01:08:16.838Z,100347.66
2022-11-08T01:10:46.069Z,100349.09
2022-11-08T01:13:13.779Z,100351.19
2022-11-08T01:15:42.536Z,100351.44
2022-11-08T01:18:28.808Z,100349.97
2022-11-08T01:20:56.382Z,100349.72
2022-11-08T01:23:23.710Z,100344.94
2022-11-08T01:25:51.030Z,100340.69
2022-11-08T01:28:19.024Z,100341.69
2022-11-08T01:30:47.323Z,100334.03
2022-11-08T01:33:15.717Z,100331.94
2022-11-08T01:35:45.224Z,100343.00
2022-11-08T01:38:12.572Z,100340.47
2022-11-08T01:40:47.808Z,100340.50
2022-11-08T01:43:30.568Z,100340.53
2022-11-08T01:46:09.817Z,100338.84
2022-11-08T01:48:40.271Z,100334.44
2022-11-08T01:51:09.883Z,100334.44
2022-11-08T01:53:37.670Z,100338.37
2022-11-08T01:56:05.411Z,100338.13
2022-11-08T01:58:34.845Z,100338.09
2022-11-08T02:01:02.927Z,100335.69
2022-11-08T02:03:33.183Z,100326.19
2022-11-08T02:06:01.313Z,100329.72
2022-11-08T02:08:38.624Z,100318.31
2022-11-08T02:11:07.176Z,100322.25
2022-11-08T02:13:35.908Z,100319.16
2022-11-08T02:16:03.511Z,100318.31
2022-11-08T02:18:32.076Z,100327.44
2022-11-08T02:21:22.775Z,100323.72
2022-11-08T02:23:52.326Z,100324.94
2022-11-08T02:26:23.411Z,100318.94
2022-11-08T02:28:51.282Z,100322.25
2022-11-08T02:31:19.468Z,100321.00
2022-11-08T02:33:47.369Z,100325.34
2022-11-08T02:36:18.043Z,100325.75
2022-11-08T02:38:53.452Z,100324.94
2022-11-08T02:41:21.354Z,100325.13
2022-11-08T02:43:48.671Z,100325.78
2022-11-08T02:46:15.983Z,100328.41
2022-11-08T02:48:43.557Z,100329.94
2022-11-08T02:51:11.090Z,100321.00
2022-11-08T02:53:38.462Z,100325.69
2022-11-08T02:56:06.094Z,100327.84
2022-11-08T02:58:33.412Z,100337.97
2022-11-08T03:01:00.872Z,100332.63
2022-11-08T03:03:28.525Z,100338.22
2022-11-08T03:05:58.842Z,100329.09
2022-11-08T03:08:26.171Z,100331.16
2022-11-08T03:27:27.103Z,100346.91
2022-11-08T03:29:54.777Z,100343.81
2022-11-08T03:32:22.745Z,100338.44
2022-11-08T03:34:50.042Z,100343.81
2022-11-08T03:37:17.635Z,100344.25
2022-11-08T03:39:44.978Z,100345.87
2022-11-08T03:42:12.271Z,100345.31
2022-11-08T03:44:39.831Z,100335.53
2022-11-08T03:47:07.152Z,100346.75
2022-11-08T03:49:34.468Z,100346.53
2022-11-08T03:52:02.182Z,100343.62
2022-11-08T03:54:29.539Z,100346.53
2022-11-08T03:56:56.884Z,100350.47
2022-11-08T03:59:24.458Z,100348.59
2022-11-08T04:01:51.843Z,100347.16
2022-11-08T04:04:19.539Z,100349.84
2022-11-08T04:06:47.089Z,100346.31
2022-11-08T04:09:19.012Z,100343.38
2022-11-08T04:12:07.686Z,100346.53
2022-11-08T04:14:53.754Z,100346.53
2022-11-08T04:17:41.257Z,100338.44
2022-11-08T04:20:27.740Z,100341.75
2022-11-08T04:22:55.327Z,100341.31
2022-11-08T04:25:22.660Z,100342.56
2022-11-08T04:27:49.965Z,100335.53
2022-11-08T04:30:17.690Z,100338.56
2022-11-08T04:32:45.029Z,100335.75
2022-11-08T04:35:12.446Z,100334.50
2022-11-08T04:37:40.023Z,100333.28
2022-11-08T04:40:08.085Z,100324.75
2022-11-08T04:42:35.434Z,100326.59
2022-11-08T04:45:03.300Z,100329.31
2022-11-08T04:47:34.629Z,100328.28
2022-11-08T04:50:05.485Z,100327.03
2022-11-08T04:52:32.799Z,100323.06
2022-11-08T04:55:00.143Z,100323.72
2022-11-08T04:57:28.673Z,100321.63
2022-11-08T04:59:56.006Z,100312.50
2022-11-08T05:02:23.443Z,100321.09
2022-11-08T05:04:51.063Z,100320.19
2022-11-08T05:07:18.434Z,100325.56
2022-11-08T05:09:45.787Z,100327.00
2022-11-08T05:12:16.155Z,100320.19
2022-11-08T05:14:43.484Z,100325.34
2022-11-08T05:17:10.799Z,100325.22
2022-11-08T05:19:57.048Z,100336.97
2022-11-08T05:22:43.064Z,100334.09
2022-11-08T05:25:10.646Z,100337.41
2022-11-08T05:27:37.966Z,100337.00
2022-11-08T05:30:05.954Z,100345.50
2022-11-08T05:32:33.549Z,100340.28
2022-11-08T05:35:00.872Z,100346.53
2022-11-08T05:37:28.199Z,100344.88
2022-11-08T05:39:55.790Z,100357.25
2022-11-08T05:42:23.131Z,100361.66
2022-11-08T05:44:50.511Z,100355.84
2022-11-08T05:47:18.331Z,100354.16
2022-11-08T05:49:45.650Z,100353.53
2022-11-08T05:52:12.996Z,100354.41
2022-11-08T05:54:40.584Z,100348.63
2022-11-08T05:57:07.935Z,100348.41
2022-11-08T05:59:35.248Z,100359.59
2022-11-08T06:02:02.912Z,100361.44
2022-11-08T06:04:30.712Z,100361.03
2022-11-08T06:06:58.038Z,100352.72
2022-11-08T06:09:25.363Z,100349.81
2022-11-08T06:11:52.965Z,100354.41
2022-11-08T06:14:20.319Z,100353.97
2022-11-08T06:16:47.646Z,100357.09
2022-11-08T06:19:15.238Z,100365.78
2022-11-08T06:21:42.555Z,100360.84
2022-11-08T06:24:09.893Z,100370.13
2022-11-08T06:26:37.517Z,100378.22
2022-11-08T06:29:04.803Z,100380.75
2022-11-08T06:31:32.160Z,100373.88
2022-11-08T06:33:59.752Z,100370.59
2022-11-08T06:36:27.136Z,100370.56
2022-11-08T06:38:55.210Z,100371.41
2022-11-08T06:41:22.906Z,100367.50
2022-11-08T06:43:50.294Z,100369.13
2022-11-08T06:46:17.646Z,100377.00
2022-11-08T06:48:45.283Z,100376.41
2022-11-08T06:51:12.675Z,100378.41
2022-11-08T06:53:40.111Z,100376.19
2022-11-08T06:56:07.939Z,100378.88
2022-11-08T06:58:35.573Z,100390.41
2022-11-08T07:01:05.046Z,100387.13
2022-11-08T07:03:33.187Z,100382.63
2022-11-08T07:06:05.794Z,100388.63
2022-11-08T07:08:33.441Z,100385.91
2022-11-08T07:11:00.828Z,100389.25
2022-11-08T07:13:28.198Z,100382.75
2022-11-08T07:15:59.624Z,100391.09
2022-11-08T07:18:27.452Z,100391.06
2022-11-08T07:20:59.534Z,100382.59
2022-11-08T07:23:27.832Z,100387.97
2022-11-08T07:25:55.350Z,100396.25
2022-11-08T07:28:22.689Z,100391.09
2022-11-08T07:30:50.279Z,100396.63
2022-11-08T07:33:18.273Z,100394.00
2022-11-08T07:35:47.465Z,100397.03
2022-11-08T07:38:15.139Z,100393.75
2022-11-08T07:40:42.538Z,100397.03
2022-11-08T07:43:12.716Z,100394.03
2022-11-08T07:45:41.579Z,100405.28
2022-11-08T07:48:12.664Z,100405.63
2022-11-08T07:50:55.004Z,100404.34
2022-11-08T07:53:32.124Z,100406.37
2022-11-08T07:56:03.832Z,100403.28
2022-11-08T07:58:34.449Z,100404.09
2022-11-08T08:01:07.252Z,100405.12
2022-11-08T08:03:44.755Z,100405.63
2022-11-08T08:06:26.385Z,100405.00
2022-11-08T08:08:54.008Z,100406.47
2022-11-08T08:11:41.597Z,100403.00
2022-11-08T08:14:27.692Z,100412.31
2022-11-08T08:16:57.387Z,100414.38
2022-11-08T08:19:41.108Z,100407.88
2022-11-08T08:22:08.381Z,100407.59
2022-11-08T08:24:45.213Z,100408.47
2022-11-08T08:27:14.139Z,100403.97
2022-11-08T08:29:45.524Z,100403.63
2022-11-08T08:32:13.316Z,100403.69
2022-11-08T08:34:41.113Z,100396.41
2022-11-08T08:37:15.309Z,100401.34
2022-11-08T08:39:43.684Z,100401.56
2022-11-08T08:42:20.125Z,100399.13
2022-11-08T08:44:48.501Z,100404.28
2022-11-08T08:47:17.136Z,100411.94
2022-11-08T08:49:44.884Z,100408.69
2022-11-08T08:52:38.028Z,100416.59
2022-11-08T08:55:15.211Z,100415.53
2022-11-08T08:57:47.160Z,100414.81
2022-11-08T09:03:24.720Z,100420.37
2022-11-08T09:05:53.373Z,100419.06
2022-11-08T09:08:24.875Z,100420.28
2022-11-08T09:10:56.456Z,100420.34
2022-11-08T09:13:26.215Z,100418.78
2022-11-08T09:15:54.972Z,100425.69
2022-11-08T09:18:23.079Z,100426.13
2022-11-08T09:20:50.468Z,100432.81
2022-11-08T09:23:18.516Z,100441.09
2022-11-08T09:25:46.145Z,100438.94
2022-11-08T09:28:13.474Z,100438.16
2022-11-08T09:30:41.071Z,100439.75
2022-11-08T09:33:08.478Z,100438.19
2022-11-08T09:35:35.883Z,100439.41
2022-11-08T09:38:03.487Z,100443.94
2022-11-08T09:40:37.578Z,100436.97
2022-11-08T09:43:08.107Z,100434.53
2022-11-08T09:45:42.460Z,100430.56
2022-11-08T09:48:28.999Z,100429.72
2022-11-08T09:50:57.723Z,100431.28
2022-11-08T09:53:45.297Z,100426.69
2022-11-08T09:56:23.977Z,100428.72
2022-11-08T09:59:03.603Z,100421.28
2022-11-08T10:01:35.342Z,100419.87
2022-11-08T10:04:06.123Z,100421.22
2022-11-08T10:07:01.893Z,100428.97
2022-11-08T10:09:30.081Z,100427.88
2022-11-08T10:12:20.013Z,100429.53
2022-11-08T10:15:19.484Z,100422.81
2022-11-08T10:18:05.693Z,100416.31
2022-11-08T10:20:48.464Z,100407.13
2022-11-08T10:23:24.313Z,100413.97
2022-11-08T10:25:56.977Z,100410.91
2022-11-08T10:28:37.572Z,100404.81
2022-11-08T10:31:05.770Z,100399.25
2022-11-08T10:33:43.188Z,100398.31
2022-11-08T10:36:15.449Z,100396.19
2022-11-08T10:38:51.460Z,100396.75
2022-11-08T10:41:44.128Z,100388.00
2022-11-08T10:44:15.864Z,100377.66
2022-11-08T10:46:55.593Z,100385.31
2022-11-08T10:49:31.233Z,100380.22
2022-11-08T10:52:01.117Z,100377.44
2022-11-08T10:54:48.923Z,100369.91
2022-11-08T10:57:42.376Z,100372.59
2022-11-08T11:00:36.162Z,100373.72
2022-11-08T11:03:09.886Z,100374.91
2022-11-08T11:05:55.665Z,100372.81
2022-11-08T11:08:23.514Z,100381.19
2022-11-08T11:10:51.042Z,100381.12
2022-11-08T11:13:18.331Z,100387.94
2022-11-08T11:15:46.628Z,100375.03
2022-11-08T11:18:33.427Z,100377.13
2022-11-08T11:21:06.355Z,100377.34
2022-11-08T11:23:45.718Z,100381.41
2022-11-08T11:26:32.926Z,100375.44
2022-11-08T11:29:06.560Z,100368.63
2022-11-08T11:31:38.663Z,100368.16
2022-11-08T11:34:18.163Z,100372.75
2022-11-08T11:36:57.925Z,100378.44
2022-11-08T11:39:31.213Z,100369.47
2022-11-08T11:42:17.802Z,100367.75
2022-11-08T11:45:08.578Z,100363.09
2022-11-08T11:47:55.927Z,100367.97
2022-11-08T11:50:28.860Z,100367.47
2022-11-08T11:52:57.551Z,100364.97
2022-11-08T11:55:42.989Z,100361.00
2022-11-08T11:58:30.873Z,100363.47
2022-11-08T12:01:04.532Z,100363.44
2022-11-08T12:03:57.722Z,100355.53
2022-11-08T12:07:00.805Z,100348.44
2022-11-08T12:09:53.622Z,100346.72
2022-11-08T12:12:36.133Z,100354.59
2022-11-08T12:15:17.264Z,100336.84
2022-11-08T12:17:47.182Z,100337.38
2022-11-08T12:20:26.617Z,100329.16
2022-11-08T12:23:19.032Z,100332.69
2022-11-08T12:25:52.592Z,100327.50
2022-11-08T12:28:29.908Z,100322.63
2022-11-08T12:31:04.219Z,100333.34
2022-11-08T12:33:47.934Z,100322.44
2022-11-08T12:36:32.413Z,100315.25
2022-11-08T12:39:04.828Z,100313.47
2022-11-08T12:41:40.331Z,100317.88
2022-11-08T12:44:13.835Z,100303.12
2022-11-08T12:46:50.630Z,100307.78
2022-11-08T12:49:39.116Z,100313.09
2022-11-08T12:52:22.808Z,100296.62
2022-11-08T12:55:16.519Z,100302.25
2022-11-08T12:57:45.475Z,100295.63
2022-11-08T13:00:17.474Z,100299.91
2022-11-08T13:03:10.634Z,100294.69
2022-11-08T13:05:43.138Z,100299.03
2022-11-08T13:08:20.183Z,100295.44
2022-11-08T13:10:59.119Z,100294.69
2022-11-08T13:13:28.382Z,100287.38
2022-11-08T13:16:12.137Z,100287.78
2022-11-08T13:18:54.486Z,100287.53
2022-11-08T13:21:28.356Z,100281.22
2022-11-08T13:24:09.957Z,100280.13
2022-11-08T13:26:50.219Z,100283.09
2022-11-08T13:29:18.021Z,100289.00
2022-11-08T13:31:49.409Z,100278.50
2022-11-08T13:34:38.062Z,100285.25
2022-11-08T13:37:30.127Z,100278.13
2022-11-08T13:40:12.808Z,100283.78
2022-11-08T13:42:57.896Z,100277.03
2022-11-08T13:45:33.206Z,100274.81
2022-11-08T13:48:02.814Z,100274.97
2022-11-08T13:50:31.459Z,100272.28
2022-11-08T13:53:18.775Z,100274.66
2022-11-08T13:55:49.121Z,100266.69
2022-11-08T13:58:39.703Z,100272.03
2022-11-08T14:01:07.219Z,100267.44
2022-11-08T14:03:34.719Z,100274.41
2022-11-08T14:06:04.930Z,100264.94
2022-11-08T14:09:10.828Z,100270.63
2022-11-08T14:12:18.606Z,100271.63
2022-11-08T14:14:52.755Z,100273.31
2022-11-08T14:17:29.225Z,100264.47
2022-11-08T14:19:59.594Z,100264.13
2022-11-08T14:22:28.508Z,100259.00
2022-11-08T14:25:09.038Z,100259.72
2022-11-08T14:27:39.431Z,100266.31
2022-11-08T14:30:19.411Z,100264.91
2022-11-08T14:32:47.392Z,100265.09
2022-11-08T14:35:25.829Z,100264.03
2022-11-08T14:37:54.706Z,100265.66
2022-11-08T14:40:28.230Z,100259.19
2022-11-08T14:42:56.349Z,100257.25
2022-11-08T14:45:27.558Z,100264.22
2022-11-08T14:48:03.653Z,100258.69
2022-11-08T14:50:34.189Z,100260.13
2022-11-08T14:53:20.678Z,100257.59
2022-11-08T14:55:55.122Z,100263.34
2022-11-08T14:58:22.818Z,100262.59
2022-11-08T15:00:50.726Z,100259.09
2022-11-08T15:03:19.811Z,100253.00
2022-11-08T15:05:54.516Z,100272.34
2022-11-08T15:08:27.409Z,100265.09
2022-11-08T15:11:28.679Z,100264.31
2022-11-08T15:14:05.458Z,100269.19
2022-11-08T15:16:43.731Z,100270.44
2022-11-08T15:19:37.324Z,100279.88
2022-11-08T15:22:28.964Z,100266.78
2022-11-08T15:25:15.722Z,100268.69
2022-11-08T15:27:57.762Z,100262.38
2022-11-08T15:30:31.456Z,100262.03
2022-11-08T15:32:59.229Z,100262.09
2022-11-08T15:35:47.135Z,100268.53
2022-11-08T15:38:31.022Z,100274.87
2022-11-08T15:41:02.272Z,100275.75
2022-11-08T15:43:32.638Z,100282.62
2022-11-08T15:46:01.143Z,100283.22
2022-11-08T15:48:28.987Z,100281.37
2022-11-08T15:50:56.924Z,100281.91
2022-11-08T15:53:26.550Z,100288.31
2022-11-08T15:55:57.681Z,100289.69
2022-11-08T15:58:44.981Z,100282.97
2022-11-08T16:01:20.820Z,100287.44
2022-11-08T16:03:48.877Z,100277.25
2022-11-08T16:06:16.343Z,100268.16
2022-11-08T16:08:43.890Z,100274.72
2022-11-08T16:11:21.157Z,100278.13
2022-11-08T16:13:51.474Z,100278.13
2022-11-08T16:16:20.170Z,100279.22
2022-11-08T16:18:48.086Z,100276.50
2022-11-08T16:21:15.853Z,100280.84
2022-11-08T16:23:43.997Z,100285.94
2022-11-08T16:26:17.419Z,100293.41
2022-11-08T16:28:45.167Z,100287.41
2022-11-08T16:31:17.792Z,100286.41
2022-11-08T16:33:46.571Z,100291.66
2022-11-08T16:36:20.740Z,100286.97
2022-11-08T16:38:56.596Z,100295.44
2022-11-08T16:41:25.153Z,100293.28
2022-11-08T16:43:53.568Z,100297.97
2022-11-08T16:46:22.231Z,100301.06
2022-11-08T16:48:54.840Z,100296.97
2022-11-08T16:51:32.181Z,100295.66
2022-11-08T16:54:02.723Z,100302.50
2022-11-08T16:56:30.956Z,100298.13
2022-11-08T16:58:58.398Z,100301.72
2022-11-08T17:01:31.732Z,100299.97
2022-11-08T17:03:59.524Z,100297.28
2022-11-08T17:06:27.319Z,100309.81
2022-11-08T17:08:55.100Z,100301.13
2022-11-08T17:11:24.278Z,100300.47
2022-11-08T17:13:53.165Z,100307.34
2022-11-08T17:16:21.190Z,100304.47
2022-11-08T17:18:53.075Z,100308.84
2022-11-08T17:24:09.436Z,100306.22
2022-11-08T17:26:36.778Z,100313.78
2022-11-08T17:29:06.515Z,100317.53
2022-11-08T17:31:34.478Z,100316.69
2022-11-08T17:34:02.168Z,100313.84
2022-11-08T17:36:30.004Z,100315.97
2022-11-08T17:38:58.662Z,100306.72
2022-11-08T17:41:26.475Z,100316.75
2022-11-08T17:43:54.479Z,100307.41
2022-11-08T17:46:22.814Z,100313.28
2022-11-08T17:48:50.844Z,100304.38
2022-11-08T17:51:18.444Z,100301.69
2022-11-08T17:53:46.579Z,100295.38
2022-11-08T17:56:14.516Z,100303.69
2022-11-08T17:58:42.309Z,100299.38
2022-11-08T18:01:10.775Z,100298.59
2022-11-08T18:03:38.694Z,100307.12
2022-11-08T18:06:11.776Z,100307.81
2022-11-08T18:08:40.614Z,100304.91
2022-11-08T18:11:08.976Z,100300.59
2022-11-08T18:13:37.512Z,100301.56
2022-11-08T18:16:14.277Z,100298.59
2022-11-08T18:18:43.380Z,100297.81
2022-11-08T18:21:12.447Z,100297.84
2022-11-08T18:23:44.721Z,100299.16
2022-11-08T18:26:15.539Z,100294.41
2022-11-08T18:28:44.793Z,100297.66
2022-11-08T18:31:16.225Z,100293.97
2022-11-08T18:33:47.816Z,100296.91
2022-11-08T18:36:22.002Z,100293.59
2022-11-08T18:38:51.870Z,100295.72
2022-11-08T18:41:23.095Z,100295.25
2022-11-08T18:43:51.506Z,100288.41
2022-11-08T18:46:22.227Z,100290.53
2022-11-08T18:48:50.833Z,100289.50
2022-11-08T18:51:20.930Z,100289.44
2022-11-08T18:53:49.632Z,100284.84
2022-11-08T18:56:20.444Z,100290.28
2022-11-08T18:58:49.342Z,100290.19
2022-11-08T19:01:17.800Z,100287.34
2022-11-08T19:03:46.385Z,100292.28
2022-11-08T19:06:14.396Z,100285.69
2022-11-08T19:08:42.652Z,100290.53
2022-11-08T19:11:12.352Z,100291.47
2022-11-08T19:13:40.903Z,100288.19
2022-11-08T19:16:14.362Z,100287.81
2022-11-08T19:18:43.040Z,100287.13
2022-11-08T19:21:15.655Z,100284.87
2022-11-08T19:23:43.933Z,100285.69
2022-11-08T19:26:15.028Z,100288.88
2022-11-08T19:28:46.050Z,100282.62
2022-11-08T19:31:16.344Z,100285.34
2022-11-08T19:33:45.121Z,100282.88
2022-11-08T19:36:15.414Z,100289.81
2022-11-08T19:38:44.484Z,100295.97
2022-11-08T19:41:14.844Z,100295.28
2022-11-08T19:43:44.339Z,100303.97
2022-11-08T19:46:15.482Z,100303.16
2022-11-08T19:48:45.653Z,100306.00
2022-11-08T19:51:17.675Z,100311.19
2022-11-08T19:53:46.415Z,100306.34
2022-11-08T19:56:17.375Z,100312.63
2022-11-08T19:58:46.012Z,100315.56
2022-11-08T20:01:17.596Z,100318.28
2022-11-08T20:03:46.452Z,100307.63
2022-11-08T20:06:15.965Z,100309.19
2022-11-08T20:08:47.351Z,100314.63
2022-11-08T20:11:25.933Z,100315.88
2022-11-08T20:13:53.693Z,100319.09
2022-11-08T20:16:27.253Z,100331.28
2022-11-08T20:18:56.890Z,100329.94
2022-11-08T20:21:24.811Z,100320.88
2022-11-08T20:23:52.329Z,100317.19
2022-11-08T20:26:22.513Z,100320.38
2022-11-08T20:28:56.517Z,100326.59
2022-11-08T20:31:25.622Z,100318.87
2022-11-08T20:33:54.996Z,100322.75
2022-11-08T20:36:24.472Z,100318.63
2022-11-08T20:38:58.360Z,100320.50
2022-11-08T20:41:30.420Z,100317.09
2022-11-08T20:43:58.519Z,100327.59
2022-11-08T20:46:27.578Z,100320.38
2022-11-08T20:49:00.823Z,100320.50
2022-11-08T20:51:30.879Z,100321.69
2022-11-08T20:54:01.153Z,100323.69
2022-11-08T20:56:32.039Z,100319.81
2022-11-08T20:59:01.787Z,100322.50
2022-11-08T21:01:30.906Z,100328.84
2022-11-08T21:03:58.838Z,100333.72
2022-11-08T21:06:28.434Z,100335.37
2022-11-08T21:08:59.962Z,100328.28
2022-11-08T21:11:31.269Z,100333.13
2022-11-08T21:13:59.097Z,100333.97
2022-11-08T21:16:30.552Z,100326.03
2022-11-08T21:19:01.355Z,100334.75
2022-11-08T21:21:29.028Z,100323.34
2022-11-08T21:23:56.708Z,100330.88
2022-11-08T21:26:25.293Z,100331.63
2022-11-08T21:28:53.785Z,100335.63
2022-11-08T21:31:21.437Z,100328.78
2022-11-08T21:33:49.764Z,100326.88
2022-11-08T21:36:18.359Z,100329.00
2022-11-08T21:38:47.954Z,100336.94
2022-11-08T21:41:15.962Z,100338.44
2022-11-08T21:43:44.649Z,100342.88
2022-11-08T21:46:18.352Z,100327.56
2022-11-08T21:48:46.755Z,100335.16
